Terminal Aerodrome Forecast
Issued by NWS Portland, ME

Home | Current Version | Previous Version | Text Only | Print | Product List | Glossary On
Versions: 1 2 3 4 5 6 7 8 9 10 11 12 13 14 15 16 17 18 19 20 21 22 23 24 25 26 27 28 29
000
FTUS41 KGYX 021130 AAF
TAFCON
TAF AMD
KCON 021130Z 0212/0306 00000KT 1SM BR VV002
      TEMPO 0212/0213 3SM BR BKN009
     FM021300 24006KT P6SM SCT050
     FM022200 23004KT P6SM SCT030
      TEMPO 0222/0302 5SM -TSRA BR BKN030CB
     FM030400 VRB03KT 1SM BR OVC002=

USA.gov is the U.S. government's official web portal to all federal, state and local government web resources and services.